Kingsville, Texas
Current Conditions -  °F | °C
As of 8:56 AM on Monday 22 Dec 2014 (Local Time) from KNQI Reporting Station
Haze Haze  
Wind Chill: 60°   Ceiling: 300
Heat Index: 60°   Visibility: 3mi
Dew Point: 60°   Wind: 12mph
Humidity: 100%   Direction: 210°SSW
Pressure: 29.79"   Gusts: NA
Location:  27.52°N, 97.85°W
Report Text: KNQI 221456Z 21010KT 3SM BR OVC003 16/16 A2979 RMK AO2 RAB34E39DZB39E51 SLP084 P0000 60000 T01560156 53001 $
Loading
Personal Weather Stations






























Interactive Weather Map New forecast layout! Learn more

10-Day Weather Forecast

Advertisements
Track Severe Weather on mobile